createdAt,value
2023-03-10T00:01:11.657Z,12.41
2023-03-10T00:03:38.081Z,12.41
2023-03-10T00:06:04.922Z,12.55
2023-03-10T00:08:31.352Z,12.53
2023-03-10T00:10:57.750Z,12.49
2023-03-10T00:13:24.151Z,12.43
2023-03-10T00:15:50.659Z,12.54
2023-03-10T00:18:17.100Z,12.48
2023-03-10T00:20:43.479Z,12.35
2023-03-10T00:23:09.842Z,12.25
2023-03-10T00:25:36.367Z,12.31
2023-03-10T00:28:02.776Z,12.26
2023-03-10T00:30:30.675Z,12.20
2023-03-10T00:32:59.003Z,12.32
2023-03-10T00:35:25.451Z,12.33
2023-03-10T00:37:51.839Z,12.39
2023-03-10T00:40:18.554Z,12.30
2023-03-10T00:42:45.076Z,12.30
2023-03-10T00:45:11.612Z,12.17
2023-03-10T00:47:38.037Z,12.15
2023-03-10T00:50:04.901Z,12.37
2023-03-10T00:52:32.901Z,12.26
2023-03-10T00:54:59.327Z,12.34
2023-03-10T00:57:26.684Z,12.33
2023-03-10T00:59:53.040Z,12.33
2023-03-10T01:02:20.074Z,12.27
2023-03-10T01:04:47.690Z,12.34
2023-03-10T01:07:14.226Z,12.34
2023-03-10T01:09:40.646Z,12.46
2023-03-10T01:12:07.476Z,12.34
2023-03-10T01:14:33.918Z,12.38
2023-03-10T01:17:00.271Z,12.30
2023-03-10T01:19:26.692Z,12.33
2023-03-10T01:21:53.355Z,12.16
2023-03-10T01:24:19.874Z,12.26
2023-03-10T01:26:46.352Z,12.26
2023-03-10T01:29:15.951Z,12.25
2023-03-10T01:31:42.406Z,12.15
2023-03-10T01:34:08.898Z,12.22
2023-03-10T01:36:35.575Z,12.06
2023-03-10T01:39:02.061Z,12.11
2023-03-10T01:41:28.488Z,12.13
2023-03-10T01:43:56.874Z,12.19
2023-03-10T01:46:47.467Z,12.19
2023-03-10T01:49:31.427Z,12.18
2023-03-10T01:52:26.661Z,12.23
2023-03-10T01:54:56.402Z,12.23
2023-03-10T01:57:26.468Z,12.19
2023-03-10T01:59:54.258Z,12.20
2023-03-10T02:02:20.721Z,12.29
2023-03-10T02:04:48.906Z,12.27
2023-03-10T02:07:18.778Z,12.14
2023-03-10T02:09:48.256Z,11.92
2023-03-10T02:12:17.113Z,11.95
2023-03-10T02:14:45.156Z,12.06
2023-03-10T02:17:16.930Z,12.09
2023-03-10T02:19:52.261Z,12.09
2023-03-10T02:22:18.760Z,12.05
2023-03-10T02:24:51.562Z,12.03
2023-03-10T02:27:22.855Z,12.02
2023-03-10T02:30:00.139Z,11.95
2023-03-10T02:32:30.246Z,11.95
2023-03-10T02:34:56.666Z,11.82
2023-03-10T02:37:29.883Z,11.98
2023-03-10T02:39:57.136Z,11.90
2023-03-10T02:42:27.049Z,11.67
2023-03-10T02:44:54.408Z,11.70
2023-03-10T02:47:20.849Z,11.76
2023-03-10T02:49:47.600Z,11.75
2023-03-10T02:52:34.524Z,11.77
2023-03-10T02:55:00.951Z,11.75
2023-03-10T02:57:27.387Z,11.70
2023-03-10T02:59:53.812Z,11.85
2023-03-10T03:02:20.164Z,11.82
2023-03-10T03:04:46.500Z,11.78
2023-03-10T03:07:12.937Z,11.65
2023-03-10T03:09:39.425Z,11.68
2023-03-10T03:12:06.092Z,11.65
2023-03-10T03:14:32.630Z,11.69
2023-03-10T03:16:59.086Z,11.72
2023-03-10T03:19:27.638Z,11.57
2023-03-10T03:21:55.108Z,11.64
2023-03-10T03:24:21.471Z,11.77
2023-03-10T03:26:47.950Z,11.61
2023-03-10T03:29:14.400Z,11.54
2023-03-10T03:31:41.343Z,11.53
2023-03-10T03:34:07.950Z,11.49
2023-03-10T03:36:34.799Z,11.57
2023-03-10T03:39:01.235Z,11.56
2023-03-10T03:41:27.649Z,11.51
2023-03-10T03:43:54.034Z,11.58
2023-03-10T03:46:20.503Z,11.57
2023-03-10T03:48:46.931Z,11.55
2023-03-10T03:51:13.442Z,11.51
2023-03-10T03:53:39.862Z,11.52
2023-03-10T03:56:06.545Z,11.60
2023-03-10T03:58:33.014Z,11.64
2023-03-10T04:00:59.417Z,11.64
2023-03-10T04:03:25.806Z,11.63
2023-03-10T04:05:52.206Z,11.60
2023-03-10T04:08:18.765Z,11.79
2023-03-10T04:10:51.447Z,11.69
2023-03-10T04:13:17.962Z,11.57
2023-03-10T04:15:44.454Z,11.58
2023-03-10T04:18:10.913Z,11.68
2023-03-10T04:20:37.806Z,11.56
2023-03-10T04:23:04.246Z,11.53
2023-03-10T04:25:31.258Z,11.64
2023-03-10T04:27:57.996Z,11.63
2023-03-10T04:30:29.153Z,11.78
2023-03-10T04:33:00.024Z,11.75
2023-03-10T04:35:27.164Z,11.65
2023-03-10T04:37:53.872Z,11.57
2023-03-10T04:40:20.567Z,11.76
2023-03-10T04:42:47.323Z,11.68
2023-03-10T04:45:13.964Z,11.74
2023-03-10T04:47:41.553Z,11.81
2023-03-10T04:50:10.199Z,11.89
2023-03-10T04:52:36.628Z,11.80
2023-03-10T04:55:03.578Z,11.92
2023-03-10T04:57:29.920Z,12.02
2023-03-10T04:59:56.412Z,12.06
2023-03-10T05:02:22.778Z,11.88
2023-03-10T05:04:49.245Z,12.05
2023-03-10T05:07:15.666Z,12.01
2023-03-10T05:09:42.673Z,11.85
2023-03-10T05:12:10.747Z,11.94
2023-03-10T05:14:37.949Z,11.89
2023-03-10T05:17:04.746Z,11.86
2023-03-10T05:19:33.973Z,11.89
2023-03-10T05:22:00.713Z,11.74
2023-03-10T05:24:27.088Z,11.82
2023-03-10T05:26:53.532Z,11.90
2023-03-10T05:29:20.891Z,11.84
2023-03-10T05:31:47.764Z,11.74
2023-03-10T05:34:14.384Z,11.55
2023-03-10T05:36:41.573Z,11.51
2023-03-10T05:39:09.459Z,11.54
2023-03-10T05:41:36.916Z,11.64
2023-03-10T05:44:03.629Z,11.52
2023-03-10T05:46:30.312Z,11.51
2023-03-10T05:48:57.412Z,11.58
2023-03-10T05:51:23.942Z,11.54
2023-03-10T05:53:50.347Z,11.54
2023-03-10T05:56:19.061Z,11.51
2023-03-10T05:58:46.760Z,11.47
2023-03-10T06:01:13.734Z,11.56
2023-03-10T06:03:40.847Z,11.41
2023-03-10T06:06:07.824Z,11.52
2023-03-10T06:08:34.870Z,11.51
2023-03-10T06:11:01.286Z,11.54
2023-03-10T06:13:27.815Z,11.60
2023-03-10T06:16:00.616Z,11.60
2023-03-10T06:18:27.987Z,11.51
2023-03-10T06:20:54.448Z,11.41
2023-03-10T06:23:22.105Z,11.52
2023-03-10T06:26:00.290Z,11.61
2023-03-10T06:28:32.722Z,11.72
2023-03-10T06:31:00.904Z,11.64
2023-03-10T06:33:28.207Z,11.49
2023-03-10T06:35:54.753Z,11.53
2023-03-10T06:38:21.658Z,11.52
2023-03-10T06:40:48.873Z,11.38
2023-03-10T06:43:16.263Z,11.50
2023-03-10T06:45:45.099Z,11.31
2023-03-10T06:48:12.428Z,11.20
2023-03-10T06:50:43.664Z,11.21
2023-03-10T06:53:11.215Z,11.42
2023-03-10T06:55:38.444Z,11.42
2023-03-10T06:58:04.880Z,11.43
2023-03-10T07:00:31.579Z,11.45
2023-03-10T07:02:58.079Z,11.55
2023-03-10T07:05:27.155Z,11.58
2023-03-10T07:07:55.367Z,11.54
2023-03-10T07:10:22.819Z,11.60
2023-03-10T07:12:54.995Z,11.47
2023-03-10T07:15:22.939Z,11.48
2023-03-10T07:17:49.461Z,11.42
2023-03-10T07:20:15.900Z,11.38
2023-03-10T07:22:42.281Z,11.17
2023-03-10T07:25:09.231Z,11.45
2023-03-10T07:27:35.584Z,11.18
2023-03-10T07:30:02.259Z,11.43
2023-03-10T07:32:28.704Z,11.25
2023-03-10T07:34:55.325Z,11.44
2023-03-10T07:37:21.771Z,11.15
2023-03-10T07:39:48.309Z,11.34
2023-03-10T07:42:14.703Z,11.13
2023-03-10T07:44:41.094Z,11.21
2023-03-10T07:47:07.464Z,11.11
2023-03-10T07:49:33.811Z,11.01
2023-03-10T07:52:00.160Z,11.03
2023-03-10T07:54:26.539Z,11.14
2023-03-10T07:56:52.912Z,11.20
2023-03-10T07:59:19.336Z,11.32
2023-03-10T08:01:45.689Z,11.31
2023-03-10T08:04:12.571Z,11.26
2023-03-10T08:06:39.161Z,11.44
2023-03-10T08:09:05.559Z,11.11
2023-03-10T08:11:31.966Z,11.19
2023-03-10T08:13:58.459Z,11.08
2023-03-10T08:16:25.085Z,11.25
2023-03-10T08:18:53.362Z,11.19
2023-03-10T08:21:20.376Z,11.23
2023-03-10T08:23:47.012Z,11.23
2023-03-10T08:26:15.557Z,11.47
2023-03-10T08:28:42.244Z,11.46
2023-03-10T08:31:15.561Z,11.52
2023-03-10T08:33:42.986Z,11.83
2023-03-10T08:36:21.397Z,11.76
2023-03-10T08:38:50.407Z,11.73
2023-03-10T08:41:23.691Z,12.04
2023-03-10T08:43:52.368Z,11.89
2023-03-10T08:46:20.845Z,11.69
2023-03-10T08:48:47.392Z,11.92
2023-03-10T08:51:15.907Z,11.65
2023-03-10T08:53:44.585Z,11.81
2023-03-10T08:56:10.958Z,11.72
2023-03-10T08:58:37.393Z,11.63
2023-03-10T09:01:04.755Z,11.77
2023-03-10T09:03:32.032Z,11.98
2023-03-10T09:05:58.710Z,11.61
2023-03-10T09:08:27.455Z,11.61
2023-03-10T09:10:54.437Z,11.68
2023-03-10T09:13:21.125Z,11.91
2023-03-10T09:15:47.494Z,12.03
2023-03-10T09:18:15.217Z,12.30
2023-03-10T09:20:42.519Z,11.89
2023-03-10T09:23:10.507Z,11.98
2023-03-10T09:25:37.071Z,11.99
2023-03-10T09:28:03.622Z,12.04
2023-03-10T09:30:30.616Z,11.74
2023-03-10T09:32:57.128Z,11.89
2023-03-10T09:35:23.697Z,11.95
2023-03-10T09:37:50.193Z,11.86
2023-03-10T09:40:19.442Z,12.34
2023-03-10T09:42:50.824Z,12.16
2023-03-10T09:45:51.319Z,12.38
2023-03-10T09:48:36.800Z,12.26
2023-03-10T09:51:14.217Z,12.26
2023-03-10T09:53:49.649Z,12.32
2023-03-10T09:56:20.161Z,12.01
2023-03-10T09:58:53.124Z,12.31
2023-03-10T10:01:23.684Z,12.00
2023-03-10T10:04:13.392Z,12.30
2023-03-10T10:06:44.352Z,12.43
2023-03-10T10:09:29.330Z,12.63
2023-03-10T10:11:56.471Z,12.66
2023-03-10T10:14:29.933Z,12.79
2023-03-10T10:17:09.654Z,13.09
2023-03-10T10:19:39.376Z,13.02
2023-03-10T10:22:17.850Z,13.23
2023-03-10T10:25:02.402Z,13.39
2023-03-10T10:27:31.394Z,13.44
2023-03-10T10:29:58.522Z,13.33
2023-03-10T10:32:25.346Z,13.33
2023-03-10T10:34:51.789Z,13.24
2023-03-10T10:37:29.286Z,13.33
2023-03-10T10:39:58.044Z,13.39
2023-03-10T10:42:25.966Z,13.42
2023-03-10T10:44:55.032Z,13.36
2023-03-10T10:47:36.452Z,13.49
2023-03-10T10:50:35.745Z,13.66
2023-03-10T10:53:21.917Z,13.37
2023-03-10T10:56:03.980Z,13.53
2023-03-10T10:58:38.833Z,13.51
2023-03-10T11:01:14.360Z,13.31
2023-03-10T11:03:46.112Z,13.41
2023-03-10T11:06:18.648Z,13.17
2023-03-10T11:08:50.875Z,13.07
2023-03-10T11:11:40.611Z,12.94
2023-03-10T11:14:25.616Z,13.25
2023-03-10T11:17:15.343Z,13.02
2023-03-10T11:19:49.677Z,12.87
2023-03-10T11:22:29.795Z,12.93
2023-03-10T11:25:05.128Z,12.86
2023-03-10T11:27:55.669Z,12.63
2023-03-10T11:30:38.163Z,12.87
2023-03-10T11:33:35.110Z,12.80
2023-03-10T11:36:18.740Z,12.94
2023-03-10T11:38:48.364Z,13.15
2023-03-10T11:41:19.252Z,13.32
2023-03-10T11:43:56.112Z,13.14
2023-03-10T11:46:47.918Z,13.20
2023-03-10T11:49:19.684Z,13.18
2023-03-10T11:51:54.012Z,13.27
2023-03-10T11:54:28.755Z,13.30
2023-03-10T11:56:56.010Z,13.18
2023-03-10T11:59:24.163Z,13.05
2023-03-10T12:02:03.975Z,13.06
2023-03-10T12:04:37.482Z,12.89
2023-03-10T12:07:23.552Z,12.89
2023-03-10T12:09:54.188Z,12.83
2023-03-10T12:12:26.533Z,12.77
2023-03-10T12:14:54.200Z,12.89
2023-03-10T12:17:20.762Z,12.80
2023-03-10T12:20:09.327Z,12.75
2023-03-10T12:22:46.221Z,12.73
2023-03-10T12:25:27.808Z,12.52
2023-03-10T12:28:15.828Z,12.40
2023-03-10T12:30:48.305Z,12.41
2023-03-10T12:33:42.458Z,12.06
2023-03-10T12:36:27.456Z,12.19
2023-03-10T12:38:58.930Z,12.28
2023-03-10T12:41:28.358Z,12.43
2023-03-10T12:44:13.642Z,12.31
2023-03-10T12:46:40.321Z,12.43
2023-03-10T12:49:31.011Z,12.36
2023-03-10T12:52:20.984Z,12.30
2023-03-10T12:55:05.965Z,12.06
2023-03-10T12:57:38.584Z,12.08
2023-03-10T13:00:19.884Z,12.22
2023-03-10T13:02:55.505Z,12.41
2023-03-10T13:05:29.411Z,12.35
2023-03-10T13:08:01.147Z,12.20
2023-03-10T13:10:30.564Z,12.30
2023-03-10T13:13:02.326Z,12.16
2023-03-10T13:15:31.364Z,12.15
2023-03-10T13:18:19.722Z,12.37
2023-03-10T13:20:47.236Z,12.06
2023-03-10T13:23:24.371Z,12.35
2023-03-10T13:25:55.698Z,12.25
2023-03-10T13:28:27.316Z,12.10
2023-03-10T13:31:16.889Z,12.16
2023-03-10T13:33:53.471Z,12.20
2023-03-10T13:36:37.734Z,12.39
2023-03-10T13:39:10.127Z,12.30
2023-03-10T13:41:40.847Z,12.34
2023-03-10T13:44:17.157Z,12.67
2023-03-10T13:46:54.076Z,12.33
2023-03-10T13:49:25.466Z,11.97
2023-03-10T13:51:54.891Z,12.25
2023-03-10T13:54:27.145Z,12.26
2023-03-10T13:57:15.830Z,12.36
2023-03-10T13:59:42.851Z,12.39
2023-03-10T14:02:19.580Z,12.40
2023-03-10T14:04:49.034Z,12.55
2023-03-10T14:07:30.050Z,12.49
2023-03-10T14:10:05.290Z,12.69
2023-03-10T14:12:50.103Z,12.77
2023-03-10T14:15:19.597Z,12.69
2023-03-10T14:17:52.454Z,12.45
2023-03-10T14:20:40.870Z,12.51
2023-03-10T14:23:19.727Z,12.41
2023-03-10T14:25:49.467Z,12.44
2023-03-10T14:28:26.333Z,12.38
2023-03-10T14:30:53.896Z,12.25
2023-03-10T14:33:20.576Z,12.50
2023-03-10T14:35:47.041Z,12.12
2023-03-10T14:38:13.719Z,12.03
2023-03-10T14:40:46.920Z,12.06
2023-03-10T14:43:28.260Z,12.04
2023-03-10T14:46:01.323Z,12.01
2023-03-10T14:48:30.768Z,11.89
2023-03-10T14:50:57.304Z,11.75
2023-03-10T14:53:25.905Z,11.56
2023-03-10T14:55:56.041Z,11.42
2023-03-10T14:58:29.521Z,11.46
2023-03-10T15:00:56.013Z,11.19
2023-03-10T15:03:22.420Z,11.17
2023-03-10T15:05:49.579Z,10.96
2023-03-10T15:08:17.204Z,10.83
2023-03-10T15:10:48.251Z,10.91
2023-03-10T15:13:16.536Z,10.54
2023-03-10T15:15:45.196Z,10.77
2023-03-10T15:18:14.535Z,10.79
2023-03-10T15:20:41.130Z,10.86
2023-03-10T15:23:08.935Z,11.09
2023-03-10T15:25:35.402Z,11.09
2023-03-10T15:28:01.991Z,11.09
2023-03-10T15:30:31.799Z,11.31
2023-03-10T15:32:58.323Z,11.15
2023-03-10T15:35:25.290Z,10.89
2023-03-10T15:37:52.218Z,10.83
2023-03-10T15:40:24.858Z,10.51
2023-03-10T15:42:52.315Z,10.48
2023-03-10T15:45:19.431Z,10.46
2023-03-10T15:47:46.909Z,10.42
2023-03-10T15:50:14.757Z,10.26
2023-03-10T15:52:53.314Z,10.19
2023-03-10T15:55:20.255Z,10.19
2023-03-10T15:57:50.147Z,10.18
2023-03-10T16:00:21.371Z,10.22
2023-03-10T16:02:48.938Z,10.13
2023-03-10T16:05:15.787Z,10.29
2023-03-10T16:07:42.380Z,10.20
2023-03-10T16:10:10.471Z,10.18
2023-03-10T16:12:36.814Z,10.19
2023-03-10T16:15:03.615Z,10.15
2023-03-10T16:17:30.037Z,10.20
2023-03-10T16:19:56.718Z,10.18
2023-03-10T16:22:23.207Z,10.28
2023-03-10T16:24:49.641Z,10.23
2023-03-10T16:27:16.007Z,10.21
2023-03-10T16:29:42.906Z,10.34
2023-03-10T16:32:10.070Z,9.98
2023-03-10T16:34:36.668Z,9.82
2023-03-10T16:37:03.243Z,9.79
2023-03-10T16:39:32.729Z,9.65
2023-03-10T16:41:59.577Z,9.74
2023-03-10T16:44:26.148Z,9.64
2023-03-10T16:46:52.598Z,9.60
2023-03-10T16:49:19.175Z,9.55
2023-03-10T16:51:47.576Z,9.46
2023-03-10T16:54:17.143Z,9.30
2023-03-10T16:56:47.494Z,9.30
2023-03-10T16:59:18.353Z,9.33
2023-03-10T17:01:45.583Z,9.26
2023-03-10T17:04:12.423Z,9.17
2023-03-10T17:06:39.235Z,9.14
2023-03-10T17:09:07.638Z,9.04
2023-03-10T17:11:37.998Z,9.14
2023-03-10T17:14:07.765Z,9.02
2023-03-10T17:16:35.566Z,9.06
2023-03-10T17:19:04.871Z,8.92
2023-03-10T17:21:35.773Z,8.93
2023-03-10T17:24:03.703Z,8.76
2023-03-10T17:26:30.497Z,8.75
2023-03-10T17:28:57.156Z,8.75
2023-03-10T17:31:26.108Z,8.58
2023-03-10T17:34:00.996Z,8.55
2023-03-10T17:36:27.975Z,8.50
2023-03-10T17:38:59.854Z,8.39
2023-03-10T17:41:27.183Z,8.41
2023-03-10T17:43:54.939Z,8.36
2023-03-10T17:46:24.377Z,8.32
2023-03-10T17:48:51.963Z,8.27
2023-03-10T17:51:21.469Z,8.41
2023-03-10T17:53:48.064Z,8.37
2023-03-10T17:56:16.290Z,8.33
2023-03-10T17:58:43.454Z,8.24
2023-03-10T18:01:19.013Z,8.08
2023-03-10T18:03:48.048Z,7.83
2023-03-10T18:06:20.674Z,7.77
2023-03-10T18:08:47.541Z,7.51
2023-03-10T18:11:14.301Z,7.47
2023-03-10T18:13:40.944Z,7.49
2023-03-10T18:16:13.894Z,7.37
2023-03-10T18:18:40.386Z,7.21
2023-03-10T18:21:09.006Z,7.17
2023-03-10T18:23:35.446Z,7.01
2023-03-10T18:26:05.744Z,6.87
2023-03-10T18:28:32.221Z,6.92
2023-03-10T18:30:58.644Z,6.89
2023-03-10T18:33:25.080Z,6.67
2023-03-10T18:35:51.659Z,6.71
2023-03-10T18:38:18.273Z,6.59
2023-03-10T18:40:44.857Z,6.60
2023-03-10T18:43:11.265Z,6.53
2023-03-10T18:45:43.969Z,6.47
2023-03-10T18:48:10.420Z,6.56
2023-03-10T18:50:36.861Z,6.36
2023-03-10T18:53:03.266Z,6.44
2023-03-10T18:55:29.678Z,6.33
2023-03-10T18:57:56.019Z,6.20
2023-03-10T19:00:23.695Z,6.24
2023-03-10T19:02:53.313Z,6.33
2023-03-10T19:05:20.665Z,6.41
2023-03-10T19:07:47.357Z,6.21
2023-03-10T19:10:16.281Z,6.06
2023-03-10T19:12:42.668Z,6.11
2023-03-10T19:15:12.324Z,5.97
2023-03-10T19:17:39.534Z,5.86
2023-03-10T19:20:09.044Z,5.92
2023-03-10T19:22:36.089Z,5.70
2023-03-10T19:25:04.847Z,5.80
2023-03-10T19:27:31.339Z,5.78
2023-03-10T19:29:58.404Z,5.76
2023-03-10T19:32:25.880Z,5.62
2023-03-10T19:34:52.379Z,5.63
2023-03-10T19:37:19.037Z,5.53
2023-03-10T19:39:45.489Z,5.46
2023-03-10T19:42:11.895Z,5.70
2023-03-10T19:44:39.003Z,5.65
2023-03-10T19:47:05.619Z,5.51
2023-03-10T19:49:34.129Z,5.62
2023-03-10T19:52:01.344Z,5.48
2023-03-10T19:54:27.930Z,5.68
2023-03-10T19:56:54.350Z,5.43
2023-03-10T19:59:20.915Z,5.32
2023-03-10T20:01:49.212Z,5.47
2023-03-10T20:04:16.187Z,5.27
2023-03-10T20:06:42.735Z,5.33
2023-03-10T20:09:10.609Z,5.36
2023-03-10T20:11:40.766Z,5.28
2023-03-10T20:14:08.088Z,5.35
2023-03-10T20:16:34.596Z,5.31
2023-03-10T20:19:01.463Z,5.42
2023-03-10T20:21:27.896Z,5.35
2023-03-10T20:23:56.235Z,5.29
2023-03-10T20:26:23.083Z,5.43
2023-03-10T20:28:50.308Z,5.28
2023-03-10T20:31:22.938Z,5.36
2023-03-10T20:33:49.765Z,5.23
2023-03-10T20:36:16.236Z,5.35
2023-03-10T20:38:44.083Z,5.24
2023-03-10T20:41:16.692Z,5.31
2023-03-10T20:43:43.977Z,5.23
2023-03-10T20:46:10.839Z,5.28
2023-03-10T20:48:37.646Z,5.14
2023-03-10T20:51:04.378Z,5.15
2023-03-10T20:53:37.283Z,5.15
2023-03-10T20:56:08.484Z,5.10
2023-03-10T20:58:35.001Z,5.17
2023-03-10T21:01:01.565Z,5.17
2023-03-10T21:03:28.021Z,5.01
2023-03-10T21:05:54.427Z,5.10
2023-03-10T21:08:20.823Z,5.11
2023-03-10T21:10:49.340Z,5.01
2023-03-10T21:13:16.005Z,5.18
2023-03-10T21:15:42.412Z,4.99
2023-03-10T21:18:08.994Z,4.97
2023-03-10T21:20:35.532Z,4.99
2023-03-10T21:23:02.000Z,4.89
2023-03-10T21:25:28.371Z,4.99
2023-03-10T21:27:58.721Z,4.90
2023-03-10T21:30:31.618Z,4.80
2023-03-10T21:32:58.419Z,4.73
2023-03-10T21:35:26.682Z,4.70
2023-03-10T21:37:55.205Z,4.71
2023-03-10T21:40:21.875Z,4.72
2023-03-10T21:42:49.376Z,4.77
2023-03-10T21:45:19.561Z,4.91
2023-03-10T21:47:46.096Z,4.93
2023-03-10T21:50:13.710Z,4.84
2023-03-10T21:52:41.322Z,4.92
2023-03-10T21:55:11.385Z,5.01
2023-03-10T21:57:38.307Z,5.02
2023-03-10T22:00:09.263Z,4.92
2023-03-10T22:02:36.999Z,4.95
2023-03-10T22:05:06.236Z,5.02
2023-03-10T22:07:33.416Z,4.96
2023-03-10T22:09:59.946Z,4.91
2023-03-10T22:12:26.412Z,4.84
2023-03-10T22:14:56.296Z,4.85
2023-03-10T22:17:24.585Z,4.72
2023-03-10T22:19:52.448Z,4.72
2023-03-10T22:22:18.833Z,4.72
2023-03-10T22:24:45.244Z,4.78
2023-03-10T22:27:11.694Z,4.55
2023-03-10T22:29:38.150Z,4.62
2023-03-10T22:32:05.282Z,4.44
2023-03-10T22:34:31.766Z,4.55
2023-03-10T22:36:58.468Z,4.38
2023-03-10T22:39:25.108Z,4.47
2023-03-10T22:41:51.999Z,4.37
2023-03-10T22:44:18.495Z,4.56
2023-03-10T22:46:46.490Z,4.47
2023-03-10T22:49:14.192Z,4.37
2023-03-10T22:51:41.315Z,4.47
2023-03-10T22:54:07.758Z,4.44
2023-03-10T22:56:34.204Z,4.34
2023-03-10T22:59:03.787Z,4.15
2023-03-10T23:01:30.577Z,4.25
2023-03-10T23:03:57.283Z,4.23
2023-03-10T23:06:24.525Z,4.27
2023-03-10T23:08:51.845Z,4.10
2023-03-10T23:11:18.341Z,4.01
2023-03-10T23:13:44.805Z,4.22
2023-03-10T23:16:11.250Z,4.18
2023-03-10T23:18:37.667Z,3.99
2023-03-10T23:21:04.603Z,3.96
2023-03-10T23:23:31.916Z,3.99
2023-03-10T23:25:58.340Z,3.94
2023-03-10T23:28:24.765Z,3.79
2023-03-10T23:30:51.282Z,3.74
2023-03-10T23:33:20.348Z,3.63
2023-03-10T23:35:50.167Z,3.56
2023-03-10T23:38:16.571Z,3.68
2023-03-10T23:40:43.047Z,3.59
2023-03-10T23:43:09.504Z,3.71
2023-03-10T23:45:38.291Z,3.70
2023-03-10T23:48:07.290Z,3.71
2023-03-10T23:50:36.562Z,3.72
2023-03-10T23:53:04.886Z,3.64
2023-03-10T23:55:37.613Z,3.73
2023-03-10T23:58:04.973Z,3.68
